Startpagina
METAR-TAF:

METAR-TAF

Vliegvelden :

Seoel-Incheon, Zuid-Korea

Incheon International Airport

breedte: 37-28N, lengte: 126-27E, hoogte: 7 m

Actueel weer

Dit bericht is 36 minuten geleden gemaakt, om 03:30 UTC
Wind 3 kt uit het zuidzuidwesten
Temperatuur 19°C
Vochtigheid 37%
Druk 1024 hPa
Zicht 10 km of meer
geen wolken onder 1500 m en geen cumulonimbus

METAR: RKSI 240330Z 20003KT CAVOK 19/04 Q1024 NOSIG

Tijdstip: 13:06 (04:06 UTC)

Verwachting

Dit bericht is 5 uur en het 6 minuten geleden gemaakt, om 23:00 UTC
Verwachting geldig van 24 om 00 UTC tot 25 om 06 UTC
Wind 6 kt uit het oostzuidoosten
Zicht 10 km of meer
Weinig wolken op 3000 ft
Gebroken wolken op 12000 ft
Wijzigt naar
van 24 om 05 UTC tot 24 om 06 UTC
Wind 7 kt uit het westnoordwesten
Zicht 10 km of meer
geen wolken onder 1500 m en geen cumulonimbus

TAF: RKSI 232300Z 2400/2506 11006KT 9999 FEW030 BKN120 TX17/2405Z TN09/2421Z TX17/2505Z BECMG 2405/2406 30007KT CAVOK

Waarnemingen en weersverwachtingen van meer dan 4000 vliegvelden (METAR en TAF).

De beschikbare stations zijn de gele en rode punten op de kaart.

Ga met uw muis naar het station om de naam te zien.

Klik dan om waarnemingen en weersverwachtingen te zien.

kaart wijzigen: klik op de groene knoppen met een zwart kruis om in te zoomen, op de groene knop met een streepje om uit te zoomen of op de groene pijlen voor aangrenzende kaarten.


METAR-TAF: